createdAt,value
2022-12-29T00:00:12.261Z,1.98
2022-12-29T00:01:18.390Z,2.10
2022-12-29T00:02:22.066Z,2.15
2022-12-29T00:03:25.752Z,2.00
2022-12-29T00:04:28.041Z,1.80
2022-12-29T00:05:31.288Z,1.70
2022-12-29T00:06:33.864Z,1.70
2022-12-29T00:07:37.121Z,2.00
2022-12-29T00:08:42.082Z,1.65
2022-12-29T00:09:45.392Z,1.60
2022-12-29T00:10:47.483Z,1.70
2022-12-29T00:11:51.102Z,1.85
2022-12-29T00:13:11.685Z,1.50
2022-12-29T00:14:32.794Z,1.75
2022-12-29T00:15:39.916Z,1.60
2022-12-29T00:16:44.828Z,1.70
2022-12-29T00:17:48.473Z,1.95
2022-12-29T00:18:51.825Z,1.60
2022-12-29T00:20:12.455Z,1.35
2022-12-29T00:21:33.956Z,1.50
2022-12-29T00:22:54.457Z,1.50
2022-12-29T00:24:15.195Z,1.52
2022-12-29T00:25:38.674Z,1.50
2022-12-29T00:26:59.222Z,1.33
2022-12-29T00:28:20.400Z,1.45
2022-12-29T00:29:52.759Z,1.63
2022-12-29T00:31:13.298Z,1.33
2022-12-29T00:32:40.367Z,1.20
2022-12-29T00:34:02.717Z,1.50
2022-12-29T00:35:12.895Z,1.35
2022-12-29T00:36:19.190Z,1.40
2022-12-29T00:37:42.757Z,1.25
2022-12-29T00:39:09.250Z,1.40
2022-12-29T00:40:30.011Z,1.60
2022-12-29T00:41:50.616Z,1.30
2022-12-29T00:43:11.284Z,1.40
2022-12-29T00:44:15.696Z,1.70
2022-12-29T00:45:20.065Z,1.50
2022-12-29T00:46:24.552Z,1.45
2022-12-29T00:47:27.846Z,1.50
2022-12-29T00:48:48.423Z,1.40
2022-12-29T00:49:52.448Z,1.33
2022-12-29T00:50:57.322Z,1.70
2022-12-29T00:52:02.644Z,1.27
2022-12-29T00:53:05.046Z,2.10
2022-12-29T00:54:08.531Z,1.60
2022-12-29T00:55:10.713Z,1.60
2022-12-29T00:56:14.982Z,1.65
2022-12-29T00:57:17.165Z,1.45
2022-12-29T00:58:21.615Z,1.40
2022-12-29T00:59:25.267Z,1.25
2022-12-29T01:00:29.120Z,1.35
2022-12-29T01:01:32.513Z,1.20
2022-12-29T01:02:36.168Z,1.40
2022-12-29T01:03:39.683Z,1.48
2022-12-29T01:04:42.829Z,1.42
2022-12-29T01:05:46.388Z,1.38
2022-12-29T01:06:50.174Z,1.40
2022-12-29T01:07:52.451Z,1.25
2022-12-29T01:09:09.698Z,1.30
2022-12-29T01:10:13.553Z,1.35
2022-12-29T01:11:15.821Z,1.33
2022-12-29T01:12:40.881Z,1.40
2022-12-29T01:13:46.462Z,1.15
2022-12-29T01:14:48.548Z,1.38
2022-12-29T01:15:52.707Z,1.35
2022-12-29T01:16:55.887Z,1.30
2022-12-29T01:17:59.254Z,1.58
2022-12-29T01:19:01.595Z,1.25
2022-12-29T01:20:06.242Z,1.20
2022-12-29T01:21:10.785Z,1.40
2022-12-29T01:22:14.566Z,1.42
2022-12-29T01:23:17.493Z,1.20
2022-12-29T01:24:22.737Z,1.48
2022-12-29T01:25:24.992Z,1.33
2022-12-29T01:26:28.157Z,1.40
2022-12-29T01:27:31.478Z,1.30
2022-12-29T01:28:34.773Z,1.42
2022-12-29T01:29:37.890Z,1.50
2022-12-29T01:30:41.096Z,0.95
2022-12-29T01:31:44.276Z,1.27
2022-12-29T01:32:46.681Z,1.15
2022-12-29T01:33:50.131Z,1.38
2022-12-29T01:34:52.233Z,1.23
2022-12-29T01:35:55.515Z,0.93
2022-12-29T01:37:00.184Z,1.15
2022-12-29T01:38:02.362Z,1.00
2022-12-29T01:39:05.874Z,1.20
2022-12-29T01:40:09.226Z,1.30
2022-12-29T01:41:14.151Z,1.80
2022-12-29T01:42:19.261Z,1.40
2022-12-29T01:43:22.873Z,1.00
2022-12-29T01:44:56.579Z,1.42
2022-12-29T01:45:59.061Z,1.13
2022-12-29T01:47:02.341Z,1.25
2022-12-29T01:48:10.758Z,1.05
2022-12-29T01:49:16.959Z,1.27
2022-12-29T01:50:27.246Z,1.20
2022-12-29T01:51:33.148Z,1.02
2022-12-29T01:52:42.959Z,1.20
2022-12-29T01:53:46.852Z,1.33
2022-12-29T01:54:55.470Z,1.02
2022-12-29T01:56:04.197Z,1.00
2022-12-29T01:57:09.403Z,1.20
2022-12-29T01:58:16.506Z,0.95
2022-12-29T01:59:25.855Z,1.20
2022-12-29T02:00:30.359Z,1.10
2022-12-29T02:01:32.924Z,0.77
2022-12-29T02:02:38.289Z,1.10
2022-12-29T02:03:43.973Z,1.10
2022-12-29T02:04:47.514Z,0.90
2022-12-29T02:05:57.531Z,1.08
2022-12-29T02:07:05.416Z,1.10
2022-12-29T02:08:11.028Z,0.80
2022-12-29T02:09:14.273Z,1.10
2022-12-29T02:10:16.874Z,1.30
2022-12-29T02:11:22.124Z,1.10
2022-12-29T02:12:25.166Z,1.20
2022-12-29T02:13:29.329Z,1.05
2022-12-29T02:14:32.692Z,1.02
2022-12-29T02:15:47.721Z,1.10
2022-12-29T02:17:02.689Z,0.95
2022-12-29T02:18:19.791Z,1.02
2022-12-29T02:19:53.902Z,0.90
2022-12-29T02:21:32.804Z,1.08
2022-12-29T02:22:42.263Z,1.00
2022-12-29T02:24:09.651Z,1.23
2022-12-29T02:25:39.688Z,1.13
2022-12-29T02:27:06.062Z,1.00
2022-12-29T02:28:43.812Z,1.25
2022-12-29T02:30:05.747Z,1.00
2022-12-29T02:31:17.787Z,1.50
2022-12-29T02:32:27.656Z,0.82
2022-12-29T02:33:42.489Z,0.80
2022-12-29T02:34:55.280Z,1.00
2022-12-29T02:36:08.569Z,1.23
2022-12-29T02:37:18.966Z,0.90
2022-12-29T02:38:30.989Z,1.35
2022-12-29T02:39:39.352Z,1.00
2022-12-29T02:40:48.229Z,1.13
2022-12-29T02:42:00.744Z,1.10
2022-12-29T02:43:14.689Z,0.77
2022-12-29T02:44:26.061Z,0.90
2022-12-29T02:45:34.407Z,0.90
2022-12-29T02:46:43.729Z,1.00
2022-12-29T02:47:57.559Z,0.90
2022-12-29T02:49:07.820Z,0.70
2022-12-29T02:50:17.544Z,1.02
2022-12-29T02:51:25.541Z,0.98
2022-12-29T02:52:33.248Z,1.08
2022-12-29T02:53:55.350Z,0.90
2022-12-29T02:54:59.562Z,1.10
2022-12-29T02:56:02.833Z,0.90
2022-12-29T02:57:09.776Z,0.95
2022-12-29T02:58:19.875Z,0.90
2022-12-29T02:59:23.049Z,0.93
2022-12-29T03:00:26.328Z,1.00
2022-12-29T03:02:03.063Z,0.95
2022-12-29T03:03:27.379Z,1.00
2022-12-29T03:04:38.546Z,0.90
2022-12-29T03:06:08.565Z,0.90
2022-12-29T03:07:21.032Z,0.68
2022-12-29T03:08:33.801Z,1.00
2022-12-29T03:09:42.964Z,0.90
2022-12-29T03:10:52.215Z,1.00
2022-12-29T03:12:08.922Z,1.00
2022-12-29T03:13:38.699Z,0.80
2022-12-29T03:15:14.475Z,0.90
2022-12-29T03:16:25.590Z,0.80
2022-12-29T03:17:36.223Z,0.90
2022-12-29T03:18:51.827Z,0.93
2022-12-29T03:20:02.368Z,1.10
2022-12-29T03:21:12.319Z,0.80
2022-12-29T03:22:27.932Z,0.80
2022-12-29T03:23:49.756Z,0.80
2022-12-29T03:24:57.516Z,0.95
2022-12-29T03:26:05.497Z,0.90
2022-12-29T03:27:10.518Z,1.02
2022-12-29T03:28:23.980Z,1.30
2022-12-29T03:29:29.037Z,0.90
2022-12-29T03:30:34.540Z,0.90
2022-12-29T03:31:39.826Z,0.90
2022-12-29T03:32:48.251Z,0.80
2022-12-29T03:33:54.928Z,1.25
2022-12-29T03:34:58.596Z,1.00
2022-12-29T03:36:04.714Z,1.00
2022-12-29T03:37:12.580Z,1.23
2022-12-29T03:38:19.625Z,0.80
2022-12-29T03:39:25.843Z,1.10
2022-12-29T03:40:29.960Z,0.90
2022-12-29T03:41:35.390Z,0.77
2022-12-29T03:42:40.732Z,1.00
2022-12-29T03:43:44.980Z,0.90
2022-12-29T03:44:48.468Z,0.95
2022-12-29T03:45:52.720Z,0.80
2022-12-29T03:46:54.979Z,0.90
2022-12-29T03:47:59.957Z,0.95
2022-12-29T03:49:03.022Z,1.20
2022-12-29T03:50:06.988Z,1.00
2022-12-29T03:51:12.452Z,0.80
2022-12-29T03:52:16.341Z,1.20
2022-12-29T03:53:20.691Z,1.08
2022-12-29T03:54:24.323Z,1.00
2022-12-29T03:55:26.480Z,0.98
2022-12-29T03:56:30.047Z,0.90
2022-12-29T03:57:32.319Z,1.10
2022-12-29T03:58:38.854Z,1.23
2022-12-29T03:59:54.934Z,0.90
2022-12-29T04:00:58.564Z,1.00
2022-12-29T04:02:01.021Z,0.70
2022-12-29T04:03:06.367Z,1.20
2022-12-29T04:04:08.607Z,0.80
2022-12-29T04:05:12.200Z,0.80
2022-12-29T04:06:14.426Z,0.70
2022-12-29T04:07:24.407Z,0.90
2022-12-29T04:08:29.148Z,0.88
2022-12-29T04:09:32.401Z,0.95
2022-12-29T04:10:35.303Z,0.90
2022-12-29T04:11:41.057Z,0.75
2022-12-29T04:12:43.368Z,0.90
2022-12-29T04:13:46.803Z,1.00
2022-12-29T04:14:53.131Z,0.95
2022-12-29T04:15:56.792Z,0.90
2022-12-29T04:16:58.987Z,1.10
2022-12-29T04:18:02.135Z,0.63
2022-12-29T04:19:06.655Z,0.95
2022-12-29T04:20:29.624Z,1.10
2022-12-29T04:21:34.415Z,1.17
2022-12-29T04:22:36.736Z,0.70
2022-12-29T04:23:41.364Z,0.80
2022-12-29T04:24:45.104Z,0.82
2022-12-29T04:25:49.240Z,0.98
2022-12-29T04:26:52.947Z,0.82
2022-12-29T04:28:06.306Z,1.10
2022-12-29T04:29:35.639Z,1.00
2022-12-29T04:30:56.222Z,0.90
2022-12-29T04:32:07.664Z,0.90
2022-12-29T04:33:13.791Z,1.00
2022-12-29T04:34:20.443Z,1.08
2022-12-29T04:35:23.627Z,1.10
2022-12-29T04:36:30.041Z,0.85
2022-12-29T04:37:32.859Z,0.80
2022-12-29T04:38:36.483Z,0.85
2022-12-29T04:39:40.106Z,1.10
2022-12-29T04:40:45.929Z,0.88
2022-12-29T04:41:48.245Z,0.93
2022-12-29T04:42:55.500Z,0.80
2022-12-29T04:43:58.736Z,0.90
2022-12-29T04:45:17.048Z,0.90
2022-12-29T04:46:36.319Z,0.88
2022-12-29T04:47:44.226Z,1.05
2022-12-29T04:49:13.631Z,0.80
2022-12-29T04:50:29.922Z,0.80
2022-12-29T04:51:50.986Z,0.80
2022-12-29T04:52:53.890Z,0.93
2022-12-29T04:53:57.929Z,1.00
2022-12-29T04:55:01.479Z,0.80
2022-12-29T04:56:05.003Z,0.70
2022-12-29T04:57:07.773Z,0.80
2022-12-29T04:58:17.543Z,0.80
2022-12-29T04:59:23.283Z,0.90
2022-12-29T05:00:29.870Z,0.80
2022-12-29T05:01:32.059Z,1.15
2022-12-29T05:02:35.395Z,1.00
2022-12-29T05:03:37.745Z,0.93
2022-12-29T05:04:41.394Z,0.82
2022-12-29T05:05:44.945Z,1.20
2022-12-29T05:06:49.797Z,1.45
2022-12-29T05:07:53.148Z,0.90
2022-12-29T05:08:56.448Z,1.00
2022-12-29T05:09:58.866Z,0.90
2022-12-29T05:11:03.513Z,0.98
2022-12-29T05:12:06.544Z,0.90
2022-12-29T05:13:11.540Z,0.90
2022-12-29T05:14:14.507Z,0.93
2022-12-29T05:15:17.990Z,0.82
2022-12-29T05:16:21.192Z,1.00
2022-12-29T05:17:24.587Z,1.00
2022-12-29T05:18:26.727Z,1.00
2022-12-29T05:19:30.775Z,0.93
2022-12-29T05:20:32.986Z,1.02
2022-12-29T05:21:37.791Z,0.82
2022-12-29T05:22:40.101Z,0.80
2022-12-29T05:23:43.740Z,0.90
2022-12-29T05:24:45.962Z,1.05
2022-12-29T05:25:49.243Z,0.80
2022-12-29T05:26:54.335Z,1.00
2022-12-29T05:28:17.399Z,1.00
2022-12-29T05:29:33.386Z,0.90
2022-12-29T05:30:36.797Z,0.90
2022-12-29T05:31:39.250Z,0.95
2022-12-29T05:32:43.236Z,1.10
2022-12-29T05:33:45.620Z,0.90
2022-12-29T05:34:49.520Z,1.10
2022-12-29T05:35:52.768Z,1.00
2022-12-29T05:36:58.652Z,1.00
2022-12-29T05:38:00.937Z,0.88
2022-12-29T05:39:04.578Z,0.95
2022-12-29T05:40:08.455Z,1.20
2022-12-29T05:41:12.314Z,1.10
2022-12-29T05:42:36.856Z,0.90
2022-12-29T05:43:55.343Z,1.10
2022-12-29T05:45:00.320Z,1.08
2022-12-29T05:46:23.841Z,1.20
2022-12-29T05:47:41.420Z,0.82
2022-12-29T05:48:50.962Z,0.95
2022-12-29T05:50:02.805Z,1.00
2022-12-29T05:51:14.832Z,1.23
2022-12-29T05:52:26.379Z,0.75
2022-12-29T05:53:29.670Z,1.20
2022-12-29T05:54:34.087Z,0.90
2022-12-29T05:55:39.218Z,0.95
2022-12-29T05:56:46.240Z,0.98
2022-12-29T05:57:48.592Z,0.90
2022-12-29T05:58:53.808Z,0.85
2022-12-29T05:59:58.396Z,0.95
2022-12-29T06:01:00.698Z,0.98
2022-12-29T06:02:04.096Z,1.08
2022-12-29T06:03:07.656Z,1.15
2022-12-29T06:04:11.562Z,1.05
2022-12-29T06:05:14.072Z,1.00
2022-12-29T06:06:17.465Z,1.00
2022-12-29T06:07:19.899Z,1.00
2022-12-29T06:08:26.517Z,1.10
2022-12-29T06:09:28.957Z,1.05
2022-12-29T06:10:32.400Z,1.08
2022-12-29T06:11:38.943Z,0.93
2022-12-29T06:12:42.388Z,1.20
2022-12-29T06:13:45.670Z,1.30
2022-12-29T06:14:48.473Z,1.10
2022-12-29T06:15:52.147Z,1.00
2022-12-29T06:16:56.128Z,1.10
2022-12-29T06:17:59.570Z,1.50
2022-12-29T06:19:02.826Z,1.10
2022-12-29T06:20:07.198Z,1.20
2022-12-29T06:21:10.529Z,1.10
2022-12-29T06:22:13.259Z,1.35
2022-12-29T06:23:19.735Z,1.23
2022-12-29T06:24:23.629Z,1.00
2022-12-29T06:25:27.042Z,1.40
2022-12-29T06:26:29.239Z,1.30
2022-12-29T06:27:33.410Z,1.45
2022-12-29T06:28:36.448Z,1.30
2022-12-29T06:29:41.791Z,1.40
2022-12-29T06:30:45.733Z,1.15
2022-12-29T06:31:49.951Z,1.10
2022-12-29T06:32:53.461Z,1.00
2022-12-29T06:34:00.358Z,1.60
2022-12-29T06:35:07.025Z,1.40
2022-12-29T06:36:14.268Z,1.63
2022-12-29T06:37:16.807Z,1.50
2022-12-29T06:38:20.166Z,1.52
2022-12-29T06:39:23.940Z,1.10
2022-12-29T06:40:38.075Z,1.27
2022-12-29T06:41:56.539Z,1.52
2022-12-29T06:43:17.233Z,1.48
2022-12-29T06:44:39.773Z,1.40
2022-12-29T06:45:46.640Z,1.30
2022-12-29T06:46:49.473Z,1.40
2022-12-29T06:47:52.911Z,1.50
2022-12-29T06:48:55.006Z,1.60
2022-12-29T06:49:58.310Z,1.80
2022-12-29T06:51:00.743Z,1.77
2022-12-29T06:52:10.787Z,1.60
2022-12-29T06:53:15.886Z,1.75
2022-12-29T06:54:18.011Z,1.60
2022-12-29T06:55:23.418Z,1.55
2022-12-29T06:56:25.652Z,1.67
2022-12-29T06:57:28.719Z,1.55
2022-12-29T06:58:31.159Z,1.58
2022-12-29T06:59:34.948Z,1.70
2022-12-29T07:00:37.041Z,1.90
2022-12-29T07:01:40.712Z,1.17
2022-12-29T07:02:43.257Z,1.35
2022-12-29T07:03:46.917Z,1.50
2022-12-29T07:04:49.116Z,2.10
2022-12-29T07:05:52.583Z,1.55
2022-12-29T07:06:54.996Z,1.50
2022-12-29T07:07:58.355Z,1.83
2022-12-29T07:09:00.873Z,1.80
2022-12-29T07:10:04.718Z,1.50
2022-12-29T07:11:08.441Z,1.30
2022-12-29T07:12:12.004Z,1.60
2022-12-29T07:13:14.288Z,1.33
2022-12-29T07:14:17.477Z,1.63
2022-12-29T07:15:19.755Z,1.33
2022-12-29T07:16:23.129Z,1.73
2022-12-29T07:17:25.422Z,1.80
2022-12-29T07:18:28.747Z,1.50
2022-12-29T07:19:30.938Z,1.50
2022-12-29T07:20:34.366Z,1.80
2022-12-29T07:21:36.532Z,1.58
2022-12-29T07:22:39.756Z,1.23
2022-12-29T07:23:42.075Z,1.58
2022-12-29T07:24:45.646Z,1.27
2022-12-29T07:25:48.067Z,1.60
2022-12-29T07:26:52.878Z,1.40
2022-12-29T07:27:55.364Z,1.60
2022-12-29T07:28:58.544Z,1.80
2022-12-29T07:30:01.958Z,1.60
2022-12-29T07:31:05.442Z,1.40
2022-12-29T07:32:07.823Z,1.60
2022-12-29T07:33:11.229Z,1.50
2022-12-29T07:34:13.435Z,1.40
2022-12-29T07:35:16.895Z,1.30
2022-12-29T07:36:19.713Z,1.38
2022-12-29T07:37:22.948Z,1.52
2022-12-29T07:38:25.210Z,1.75
2022-12-29T07:39:28.360Z,1.42
2022-12-29T07:40:31.621Z,1.65
2022-12-29T07:41:33.897Z,1.80
2022-12-29T07:42:40.937Z,1.77
2022-12-29T07:43:49.301Z,1.40
2022-12-29T07:45:21.897Z,1.52
2022-12-29T07:46:55.651Z,1.20
2022-12-29T07:47:52.543Z,1.55
2022-12-29T07:48:54.816Z,1.50
2022-12-29T07:49:58.143Z,1.55
2022-12-29T07:51:00.347Z,1.58
2022-12-29T07:52:03.839Z,1.50
2022-12-29T07:53:05.947Z,1.50
2022-12-29T07:54:09.377Z,1.60
2022-12-29T07:55:11.835Z,1.55
2022-12-29T07:56:15.655Z,1.70
2022-12-29T07:57:18.024Z,1.80
2022-12-29T07:58:22.676Z,1.70
2022-12-29T07:59:25.035Z,1.23
2022-12-29T08:00:29.186Z,1.20
2022-12-29T08:01:33.239Z,1.35
2022-12-29T08:02:36.466Z,1.10
2022-12-29T08:03:39.102Z,1.17
2022-12-29T08:04:42.501Z,1.30
2022-12-29T08:05:44.789Z,1.20
2022-12-29T08:06:48.065Z,1.20
2022-12-29T08:07:50.240Z,1.45
2022-12-29T08:08:53.443Z,1.25
2022-12-29T08:09:55.762Z,1.30
2022-12-29T08:10:58.960Z,1.35
2022-12-29T08:12:01.105Z,1.42
2022-12-29T08:13:04.272Z,1.38
2022-12-29T08:14:07.939Z,1.40
2022-12-29T08:15:13.975Z,1.25
2022-12-29T08:16:16.192Z,1.33
2022-12-29T08:17:19.711Z,1.40
2022-12-29T08:18:22.039Z,1.35
2022-12-29T08:19:25.221Z,1.48
2022-12-29T08:20:27.474Z,1.45
2022-12-29T08:21:30.886Z,1.80
2022-12-29T08:22:33.088Z,1.80
2022-12-29T08:23:36.314Z,1.70
2022-12-29T08:24:38.676Z,1.60
2022-12-29T08:25:42.105Z,1.20
2022-12-29T08:26:44.418Z,1.40
2022-12-29T08:27:47.964Z,1.40
2022-12-29T08:28:50.215Z,1.70
2022-12-29T08:29:54.896Z,1.63
2022-12-29T08:31:00.332Z,1.70
2022-12-29T08:32:03.719Z,1.63
2022-12-29T08:33:06.128Z,1.25
2022-12-29T08:34:09.406Z,1.70
2022-12-29T08:35:14.241Z,1.20
2022-12-29T08:36:17.771Z,1.60
2022-12-29T08:37:19.950Z,1.45
2022-12-29T08:38:23.519Z,2.10
2022-12-29T08:39:26.073Z,1.65
2022-12-29T08:40:29.566Z,1.80
2022-12-29T08:41:31.756Z,1.70
2022-12-29T08:42:35.386Z,1.40
2022-12-29T08:43:37.829Z,1.65
2022-12-29T08:44:41.378Z,1.67
2022-12-29T08:45:45.173Z,2.08
2022-12-29T08:46:48.712Z,1.75
2022-12-29T08:47:52.216Z,1.75
2022-12-29T08:48:54.852Z,1.70
2022-12-29T08:49:58.340Z,1.40
2022-12-29T08:51:01.612Z,1.70
2022-12-29T08:52:10.804Z,2.30
2022-12-29T08:53:16.952Z,1.92
2022-12-29T08:54:19.258Z,1.55
2022-12-29T08:55:22.851Z,1.45
2022-12-29T08:56:27.952Z,1.45
2022-12-29T08:57:34.581Z,2.30
2022-12-29T08:58:52.207Z,1.67
2022-12-29T08:59:56.464Z,1.48
2022-12-29T09:01:01.967Z,2.03
2022-12-29T09:02:05.714Z,1.75
2022-12-29T09:03:08.214Z,2.00
2022-12-29T09:04:15.615Z,2.33
2022-12-29T09:05:19.162Z,1.50
2022-12-29T09:06:22.904Z,1.70
2022-12-29T09:07:26.642Z,1.52
2022-12-29T09:08:28.938Z,1.30
2022-12-29T09:09:32.384Z,1.60
2022-12-29T09:10:35.758Z,1.48
2022-12-29T09:11:39.357Z,1.40
2022-12-29T09:12:41.595Z,1.58
2022-12-29T09:13:50.625Z,1.55
2022-12-29T09:14:52.957Z,1.65
2022-12-29T09:16:01.642Z,1.30
2022-12-29T09:17:22.325Z,1.30
2022-12-29T09:18:25.698Z,1.45
2022-12-29T09:19:29.071Z,1.20
2022-12-29T09:20:32.758Z,1.48
2022-12-29T09:21:34.888Z,1.27
2022-12-29T09:22:38.322Z,1.50
2022-12-29T09:23:42.495Z,1.48
2022-12-29T09:24:45.791Z,1.42
2022-12-29T09:25:50.112Z,1.58
2022-12-29T09:26:52.287Z,1.30
2022-12-29T09:27:55.970Z,1.33
2022-12-29T09:28:58.521Z,1.30
2022-12-29T09:30:01.975Z,1.48
2022-12-29T09:31:06.362Z,1.20
2022-12-29T09:32:13.881Z,1.30
2022-12-29T09:33:20.590Z,2.28
2022-12-29T09:34:22.835Z,1.20
2022-12-29T09:35:26.208Z,1.38
2022-12-29T09:36:28.769Z,1.30
2022-12-29T09:37:32.239Z,1.60
2022-12-29T09:38:35.754Z,1.60
2022-12-29T09:39:37.930Z,2.00
2022-12-29T09:40:42.106Z,1.70
2022-12-29T09:41:50.800Z,1.30
2022-12-29T09:43:19.935Z,1.65
2022-12-29T09:44:29.309Z,1.50
2022-12-29T09:45:38.422Z,1.30
2022-12-29T09:46:46.557Z,1.25
2022-12-29T09:47:48.853Z,1.33
2022-12-29T09:48:57.563Z,1.35
2022-12-29T09:50:05.429Z,1.58
2022-12-29T09:51:12.727Z,1.05
2022-12-29T09:52:20.077Z,1.02
2022-12-29T09:53:28.407Z,1.20
2022-12-29T09:54:43.237Z,1.20
2022-12-29T09:55:51.526Z,1.00
2022-12-29T09:56:54.542Z,0.90
2022-12-29T09:58:02.017Z,1.10
2022-12-29T09:59:12.142Z,1.02
2022-12-29T10:00:18.862Z,1.20
2022-12-29T10:01:29.565Z,1.10
2022-12-29T10:02:41.515Z,1.30
2022-12-29T10:03:50.728Z,1.40
2022-12-29T10:04:53.154Z,1.33
2022-12-29T10:06:03.802Z,1.80
2022-12-29T10:07:31.890Z,1.42
2022-12-29T10:08:41.866Z,1.73
2022-12-29T10:09:53.794Z,1.15
2022-12-29T10:11:01.477Z,1.25
2022-12-29T10:12:20.229Z,1.38
2022-12-29T10:13:33.577Z,1.20
2022-12-29T10:14:53.493Z,1.15
2022-12-29T10:16:04.655Z,1.00
2022-12-29T10:17:24.755Z,1.20
2022-12-29T10:18:43.014Z,1.30
2022-12-29T10:20:01.154Z,1.20
2022-12-29T10:21:09.914Z,1.10
2022-12-29T10:22:22.938Z,1.20
2022-12-29T10:23:32.598Z,1.13
2022-12-29T10:24:38.242Z,1.10
2022-12-29T10:25:43.455Z,1.10
2022-12-29T10:26:47.360Z,1.15
2022-12-29T10:27:51.888Z,0.90
2022-12-29T10:28:58.798Z,1.30
2022-12-29T10:30:04.677Z,1.00
2022-12-29T10:31:12.499Z,0.90
2022-12-29T10:32:25.371Z,1.20
2022-12-29T10:33:37.209Z,0.98
2022-12-29T10:34:46.325Z,1.00
2022-12-29T10:35:49.256Z,1.05
2022-12-29T10:36:57.828Z,1.00
2022-12-29T10:38:04.680Z,1.02
2022-12-29T10:39:17.559Z,1.08
2022-12-29T10:40:27.989Z,1.30
2022-12-29T10:41:38.663Z,0.90
2022-12-29T10:42:44.492Z,1.10
2022-12-29T10:43:49.594Z,0.90
2022-12-29T10:44:53.343Z,1.38
2022-12-29T10:45:59.828Z,1.20
2022-12-29T10:47:08.336Z,1.38
2022-12-29T10:48:20.392Z,1.40
2022-12-29T10:49:28.908Z,1.20
2022-12-29T10:50:32.467Z,1.33
2022-12-29T10:51:39.370Z,1.50
2022-12-29T10:52:43.309Z,1.08
2022-12-29T10:53:49.695Z,1.17
2022-12-29T10:54:57.241Z,1.20
2022-12-29T10:56:02.963Z,1.15
2022-12-29T10:57:13.094Z,1.48
2022-12-29T10:58:17.875Z,1.10
2022-12-29T10:59:23.646Z,1.13
2022-12-29T11:00:27.379Z,1.15
2022-12-29T11:01:37.668Z,1.23
2022-12-29T11:02:55.776Z,1.08
2022-12-29T11:05:28.790Z,1.10
2022-12-29T11:06:31.591Z,1.30
2022-12-29T11:07:34.900Z,1.25
2022-12-29T11:08:42.051Z,0.95
2022-12-29T11:09:47.501Z,1.35
2022-12-29T11:11:00.068Z,1.20
2022-12-29T11:12:20.360Z,1.00
2022-12-29T11:13:33.556Z,1.13
2022-12-29T11:14:43.543Z,1.15
2022-12-29T11:15:48.147Z,1.25
2022-12-29T11:16:59.948Z,0.90
2022-12-29T11:18:03.401Z,1.10
2022-12-29T11:19:07.468Z,1.20
2022-12-29T11:20:34.473Z,0.88
2022-12-29T11:21:43.432Z,0.80
2022-12-29T11:22:46.071Z,0.95
2022-12-29T11:23:59.304Z,1.55
2022-12-29T11:25:14.319Z,1.20
2022-12-29T11:26:22.431Z,1.30
2022-12-29T11:27:26.601Z,1.15
2022-12-29T11:28:33.174Z,1.20
2022-12-29T11:29:40.544Z,1.30
2022-12-29T11:30:45.646Z,1.00
2022-12-29T11:31:50.273Z,1.00
2022-12-29T11:32:54.814Z,0.98
2022-12-29T11:34:04.955Z,1.35
2022-12-29T11:35:29.182Z,1.20
2022-12-29T11:36:37.613Z,1.00
2022-12-29T11:37:43.578Z,1.30
2022-12-29T11:38:51.387Z,1.10
2022-12-29T11:39:59.905Z,1.00
2022-12-29T11:41:03.060Z,1.40
2022-12-29T11:42:10.545Z,0.95
2022-12-29T11:43:24.537Z,1.20
2022-12-29T11:44:27.676Z,1.27
2022-12-29T11:45:34.767Z,1.20
2022-12-29T11:46:40.533Z,1.30
2022-12-29T11:47:45.773Z,1.15
2022-12-29T11:48:50.764Z,1.20
2022-12-29T11:49:55.174Z,1.23
2022-12-29T11:51:01.773Z,1.20
2022-12-29T11:52:05.871Z,1.40
2022-12-29T11:53:17.746Z,0.90
2022-12-29T11:54:24.842Z,1.05
2022-12-29T11:55:29.296Z,1.30
2022-12-29T11:56:41.324Z,1.30
2022-12-29T11:57:44.981Z,1.30
2022-12-29T11:58:50.505Z,1.10
2022-12-29T11:59:57.116Z,1.17
2022-12-29T12:01:04.024Z,1.40
2022-12-29T12:02:26.048Z,1.00
2022-12-29T12:03:32.746Z,1.00
2022-12-29T12:04:38.464Z,1.10
2022-12-29T12:05:53.600Z,1.10
2022-12-29T12:07:01.574Z,0.95
2022-12-29T12:08:20.356Z,1.10
2022-12-29T12:09:29.852Z,1.10
2022-12-29T12:10:39.907Z,1.05
2022-12-29T12:11:46.519Z,1.15
2022-12-29T12:12:54.502Z,1.10
2022-12-29T12:14:05.595Z,1.00
2022-12-29T12:15:44.917Z,1.10
2022-12-29T12:16:53.229Z,0.90
2022-12-29T12:18:01.364Z,1.00
2022-12-29T12:19:11.695Z,1.10
2022-12-29T12:20:20.025Z,1.00
2022-12-29T12:21:30.188Z,1.00
2022-12-29T12:22:35.949Z,1.00
2022-12-29T12:24:05.527Z,1.13
2022-12-29T12:25:16.621Z,1.10
2022-12-29T12:26:23.641Z,1.10
2022-12-29T12:27:30.231Z,1.30
2022-12-29T12:28:40.316Z,1.08
2022-12-29T12:29:52.735Z,1.35
2022-12-29T12:30:59.392Z,0.80
2022-12-29T12:32:11.987Z,1.73
2022-12-29T12:33:23.603Z,1.13
2022-12-29T12:34:33.440Z,1.13
2022-12-29T12:35:45.533Z,1.10
2022-12-29T12:37:11.520Z,1.00
2022-12-29T12:38:22.936Z,1.25
2022-12-29T12:39:35.977Z,1.17
2022-12-29T12:41:07.354Z,1.00
2022-12-29T12:42:30.456Z,0.93
2022-12-29T12:43:52.168Z,1.52
2022-12-29T12:45:06.232Z,0.90
2022-12-29T12:46:24.823Z,1.45
2022-12-29T12:47:54.365Z,0.95
2022-12-29T12:49:16.988Z,1.27
2022-12-29T12:50:52.276Z,1.05
2022-12-29T12:52:05.483Z,1.50
2022-12-29T12:53:38.496Z,1.20
2022-12-29T12:54:57.023Z,1.35
2022-12-29T12:56:15.123Z,1.20
2022-12-29T12:57:30.420Z,1.13
2022-12-29T12:58:42.309Z,1.20
2022-12-29T12:59:59.489Z,0.95
2022-12-29T13:01:16.800Z,1.00
2022-12-29T13:02:45.908Z,1.10
2022-12-29T13:04:04.635Z,1.00
2022-12-29T13:05:39.967Z,1.20
2022-12-29T13:06:52.478Z,1.23
2022-12-29T13:08:24.984Z,0.80
2022-12-29T13:09:44.790Z,1.00
2022-12-29T13:10:56.439Z,0.90
2022-12-29T13:12:13.657Z,1.30
2022-12-29T13:13:38.684Z,1.10
2022-12-29T13:14:56.865Z,1.52
2022-12-29T13:16:13.802Z,1.13
2022-12-29T13:17:25.386Z,1.42
2022-12-29T13:18:34.283Z,1.92
2022-12-29T13:19:44.126Z,1.20
2022-12-29T13:20:54.503Z,1.20
2022-12-29T13:22:06.958Z,1.00
2022-12-29T13:23:18.580Z,1.20
2022-12-29T13:24:29.508Z,0.90
2022-12-29T13:25:39.173Z,1.10
2022-12-29T13:26:48.582Z,1.20
2022-12-29T13:27:56.214Z,1.20
2022-12-29T13:29:06.385Z,1.00
2022-12-29T13:30:15.138Z,1.10
2022-12-29T13:31:25.280Z,1.50
2022-12-29T13:32:43.510Z,1.10
2022-12-29T13:33:57.208Z,1.17
2022-12-29T13:35:14.593Z,1.30
2022-12-29T13:36:25.077Z,1.00
2022-12-29T13:37:31.339Z,1.05
2022-12-29T13:38:38.848Z,1.00
2022-12-29T13:39:45.487Z,1.20
2022-12-29T13:40:55.539Z,1.48
2022-12-29T13:42:00.412Z,1.30
2022-12-29T13:43:04.854Z,1.30
2022-12-29T13:44:10.443Z,1.30
2022-12-29T13:45:18.032Z,1.42
2022-12-29T13:46:26.286Z,1.00
2022-12-29T13:47:33.157Z,1.13
2022-12-29T13:48:41.084Z,1.10
2022-12-29T13:49:45.810Z,1.10
2022-12-29T13:50:54.722Z,1.65
2022-12-29T13:52:00.785Z,1.23
2022-12-29T13:53:12.238Z,1.40
2022-12-29T13:54:28.003Z,1.23
2022-12-29T13:55:38.284Z,1.35
2022-12-29T13:56:45.123Z,1.35
2022-12-29T13:57:54.363Z,1.20
2022-12-29T13:59:05.632Z,1.40
2022-12-29T14:00:17.412Z,1.30
2022-12-29T14:01:24.677Z,1.63
2022-12-29T14:02:48.487Z,1.17
2022-12-29T14:03:53.856Z,1.40
2022-12-29T14:05:03.070Z,1.00
2022-12-29T14:06:15.553Z,1.10
2022-12-29T14:07:20.483Z,1.40
2022-12-29T14:08:24.408Z,1.50
2022-12-29T14:09:48.908Z,1.40
2022-12-29T14:10:52.793Z,1.17
2022-12-29T14:12:00.665Z,1.13
2022-12-29T14:13:15.453Z,1.00
2022-12-29T14:14:24.076Z,1.50
2022-12-29T14:15:28.654Z,1.23
2022-12-29T14:16:33.790Z,1.35
2022-12-29T14:17:37.670Z,1.38
2022-12-29T14:18:45.890Z,0.90
2022-12-29T14:19:52.775Z,1.48
2022-12-29T14:20:58.309Z,1.20
2022-12-29T14:22:04.826Z,1.50
2022-12-29T14:23:28.120Z,1.42
2022-12-29T14:24:43.641Z,1.30
2022-12-29T14:26:02.589Z,1.30
2022-12-29T14:27:54.704Z,1.27
2022-12-29T14:29:17.302Z,1.90
2022-12-29T14:30:49.365Z,1.45
2022-12-29T14:31:53.088Z,1.73
2022-12-29T14:33:12.809Z,1.85
2022-12-29T14:34:31.379Z,1.65
2022-12-29T14:35:41.378Z,1.92
2022-12-29T14:36:55.761Z,2.33
2022-12-29T14:38:08.056Z,1.92
2022-12-29T14:39:38.152Z,1.65
2022-12-29T14:40:40.609Z,2.70
2022-12-29T14:41:44.303Z,2.20
2022-12-29T14:42:48.873Z,1.95
2022-12-29T14:43:59.580Z,2.00
2022-12-29T14:45:09.096Z,1.90
2022-12-29T14:46:11.440Z,2.03
2022-12-29T14:47:21.116Z,1.63
2022-12-29T14:48:43.109Z,2.03
2022-12-29T14:49:46.219Z,1.52
2022-12-29T14:50:49.964Z,2.13
2022-12-29T14:51:54.021Z,2.17
2022-12-29T14:53:03.653Z,1.92
2022-12-29T14:54:41.162Z,1.60
2022-12-29T14:55:47.710Z,1.90
2022-12-29T14:56:52.532Z,2.00
2022-12-29T14:58:01.512Z,2.55
2022-12-29T14:59:11.813Z,2.25
2022-12-29T15:00:20.346Z,2.10
2022-12-29T15:01:29.749Z,1.73
2022-12-29T15:02:39.929Z,3.17
2022-12-29T15:03:50.993Z,2.05
2022-12-29T15:05:09.500Z,2.10
2022-12-29T15:06:17.792Z,2.60
2022-12-29T15:07:21.940Z,3.00
2022-12-29T15:08:27.215Z,3.08
2022-12-29T15:09:37.418Z,5.00
2022-12-29T15:10:45.274Z,4.80